createdAt,value
2022-12-24T00:39:22.313Z,16.80
2022-12-24T00:39:32.336Z,18.20
2022-12-24T00:39:42.376Z,17.90
2022-12-24T00:39:52.453Z,19.10
2022-12-24T00:40:02.565Z,19.30
2022-12-24T00:40:12.617Z,20.00
2022-12-24T00:40:22.664Z,20.20
2022-12-24T00:40:32.712Z,20.60
2022-12-24T00:40:42.733Z,20.10
2022-12-24T00:40:52.780Z,20.10
2022-12-24T00:41:02.821Z,20.20
2022-12-24T00:41:12.866Z,26.30
2022-12-24T00:41:22.911Z,28.40
2022-12-24T00:41:32.957Z,28.60
2022-12-24T00:41:42.983Z,24.20
2022-12-24T00:41:53.031Z,22.10
2022-12-24T00:42:03.084Z,22.20
2022-12-24T00:42:13.106Z,23.30
2022-12-24T00:42:23.121Z,22.60
2022-12-24T00:42:33.166Z,23.00
2022-12-24T00:42:43.205Z,23.30
2022-12-24T00:42:53.270Z,23.80
2022-12-24T00:43:05.704Z,22.70
2022-12-24T00:43:13.381Z,21.40
2022-12-24T00:43:23.338Z,21.90
2022-12-24T00:43:33.403Z,20.40
2022-12-24T00:43:43.488Z,19.40
2022-12-24T00:43:53.541Z,19.00
2022-12-24T00:44:03.654Z,21.20
2022-12-24T00:44:13.825Z,21.40
2022-12-24T00:44:24.390Z,22.00
2022-12-24T00:44:33.810Z,22.00
2022-12-24T00:44:43.961Z,21.40
2022-12-24T00:44:54.061Z,21.80
2022-12-24T00:45:04.188Z,23.10
2022-12-24T00:45:14.241Z,23.50
2022-12-24T00:45:24.365Z,23.20
2022-12-24T00:45:34.407Z,20.50
2022-12-24T00:45:44.554Z,20.00
2022-12-24T00:45:54.514Z,19.50
2022-12-24T00:46:04.625Z,19.10
2022-12-24T00:46:14.731Z,20.70
2022-12-24T00:46:24.723Z,20.30
2022-12-24T00:46:34.792Z,22.80
2022-12-24T00:46:44.859Z,20.50
2022-12-24T00:46:54.729Z,21.10
2022-12-24T00:47:10.051Z,18.50
2022-12-24T00:47:15.767Z,20.60
2022-12-24T00:47:25.832Z,22.90
2022-12-24T00:47:35.889Z,26.50
2022-12-24T00:47:45.907Z,23.50
2022-12-24T00:47:55.946Z,21.70
2022-12-24T00:48:06.024Z,19.00
2022-12-24T00:48:16.026Z,19.10
2022-12-24T00:48:26.071Z,19.30
2022-12-24T00:48:36.212Z,18.40
2022-12-24T00:48:46.275Z,21.60
2022-12-24T00:48:56.299Z,19.90
2022-12-24T00:49:06.338Z,20.50
2022-12-24T00:49:16.366Z,20.00
2022-12-24T00:49:26.426Z,22.50
2022-12-24T00:49:36.460Z,21.70
2022-12-24T00:49:46.504Z,19.40
2022-12-24T00:49:56.528Z,18.90
2022-12-24T00:50:06.562Z,19.10
2022-12-24T00:50:16.587Z,20.60
2022-12-24T00:50:26.619Z,18.90
2022-12-24T00:50:36.660Z,18.80
2022-12-24T00:50:46.754Z,17.50
2022-12-24T00:50:57.768Z,17.40
2022-12-24T00:51:06.797Z,18.50
2022-12-24T00:51:16.911Z,20.60
2022-12-24T00:51:26.859Z,20.50
2022-12-24T00:51:36.963Z,19.80
2022-12-24T00:51:46.871Z,19.80
2022-12-24T00:51:56.908Z,20.10
2022-12-24T00:52:06.917Z,19.50
2022-12-24T00:52:16.948Z,20.10
2022-12-24T00:52:26.966Z,19.90
2022-12-24T00:52:37.008Z,20.90
2022-12-24T00:52:47.037Z,18.80
2022-12-24T00:52:57.068Z,19.60
2022-12-24T00:53:07.097Z,19.30
2022-12-24T00:53:17.131Z,19.30
2022-12-24T00:53:27.157Z,20.40
2022-12-24T00:53:37.168Z,21.30
2022-12-24T00:53:47.219Z,23.00
2022-12-24T00:53:57.282Z,21.50
2022-12-24T00:54:07.298Z,21.80
2022-12-24T00:54:17.329Z,21.10
2022-12-24T00:54:27.353Z,21.90
2022-12-24T00:54:37.418Z,19.90
2022-12-24T00:54:47.440Z,19.30
2022-12-24T00:54:57.574Z,18.20
2022-12-24T00:55:07.588Z,19.00
2022-12-24T00:55:17.679Z,19.30
2022-12-24T00:55:27.694Z,19.00
2022-12-24T00:55:37.725Z,18.70
2022-12-24T00:55:47.727Z,20.70
2022-12-24T00:55:57.819Z,22.30
2022-12-24T00:56:07.837Z,24.20
2022-12-24T00:56:17.864Z,22.60
2022-12-24T00:56:27.900Z,21.70
2022-12-24T00:56:37.958Z,26.10
2022-12-24T00:56:47.990Z,28.40
2022-12-24T00:56:58.026Z,31.80
2022-12-24T00:57:08.049Z,30.20
2022-12-24T00:57:18.097Z,32.10
2022-12-24T00:57:28.122Z,39.90
2022-12-24T00:57:38.158Z,41.90
2022-12-24T00:57:48.189Z,37.60
2022-12-24T00:57:58.212Z,28.40
2022-12-24T00:58:08.238Z,24.80
2022-12-24T00:58:18.268Z,24.60
2022-12-24T00:58:28.290Z,21.00
2022-12-24T00:58:38.330Z,20.30
2022-12-24T00:58:48.381Z,19.70
2022-12-24T00:58:58.409Z,19.40
2022-12-24T00:59:08.465Z,19.50
2022-12-24T00:59:18.483Z,17.90
2022-12-24T00:59:28.556Z,18.20
2022-12-24T00:59:38.589Z,17.30
2022-12-24T00:59:48.643Z,17.20
2022-12-24T00:59:58.653Z,17.40
2022-12-24T01:00:08.804Z,16.30
2022-12-24T01:00:18.986Z,18.70
2022-12-24T01:00:28.986Z,18.30
2022-12-24T01:00:39.043Z,20.30
2022-12-24T01:00:49.073Z,19.50
2022-12-24T01:00:59.233Z,19.00
2022-12-24T01:01:09.308Z,18.60
2022-12-24T01:01:19.381Z,17.70
2022-12-24T01:01:29.532Z,18.60
2022-12-24T01:01:39.544Z,18.60
2022-12-24T01:01:49.671Z,18.80
2022-12-24T01:01:59.681Z,17.70
2022-12-24T01:02:09.868Z,19.30
2022-12-24T01:02:19.971Z,19.90
2022-12-24T01:02:30.005Z,20.00
2022-12-24T01:02:40.002Z,18.60
2022-12-24T01:02:50.176Z,17.40
2022-12-24T01:03:00.255Z,16.90
2022-12-24T01:03:10.226Z,16.00
2022-12-24T01:03:20.236Z,16.60
2022-12-24T01:03:30.403Z,17.20
2022-12-24T01:03:40.374Z,17.60
2022-12-24T01:03:50.570Z,19.50
2022-12-24T01:04:00.464Z,20.60
2022-12-24T01:04:10.519Z,19.30
2022-12-24T01:04:20.566Z,16.90
2022-12-24T01:04:30.725Z,16.90
2022-12-24T01:04:40.813Z,16.50
2022-12-24T01:04:50.850Z,15.60
2022-12-24T01:05:00.897Z,14.30
2022-12-24T01:05:11.008Z,15.30
2022-12-24T01:05:21.036Z,16.80
2022-12-24T01:05:31.089Z,16.70
2022-12-24T01:05:41.135Z,16.50
2022-12-24T01:05:51.267Z,15.00
2022-12-24T01:06:01.300Z,15.20
2022-12-24T01:06:11.391Z,15.70
2022-12-24T01:06:21.446Z,16.60
2022-12-24T01:06:31.418Z,19.20
2022-12-24T01:06:41.445Z,18.10
2022-12-24T01:06:51.518Z,16.90
2022-12-24T01:07:01.562Z,14.00
2022-12-24T01:07:11.664Z,15.00
2022-12-24T01:07:21.728Z,15.60
2022-12-24T01:07:31.824Z,16.30
2022-12-24T01:07:41.945Z,17.40
2022-12-24T01:07:51.975Z,17.20
2022-12-24T01:08:02.059Z,18.50
2022-12-24T01:08:12.098Z,19.40
2022-12-24T01:08:22.181Z,19.60
2022-12-24T01:08:32.255Z,19.40
2022-12-24T01:08:42.319Z,16.30
2022-12-24T01:08:52.398Z,17.10
2022-12-24T01:09:02.459Z,16.60
2022-12-24T01:09:12.531Z,18.50
2022-12-24T01:09:22.582Z,17.10
2022-12-24T01:09:32.664Z,15.90
2022-12-24T01:09:42.749Z,15.00
2022-12-24T01:09:52.795Z,16.00
2022-12-24T01:10:02.930Z,17.90
2022-12-24T01:10:12.846Z,18.20
2022-12-24T01:10:22.958Z,17.20
2022-12-24T01:10:33.042Z,16.20
2022-12-24T01:10:43.072Z,17.20
2022-12-24T01:10:53.157Z,18.50
2022-12-24T01:11:03.235Z,18.90
2022-12-24T01:11:13.296Z,17.90
2022-12-24T01:11:23.355Z,17.60
2022-12-24T01:11:33.425Z,16.40
2022-12-24T01:11:43.462Z,18.10
2022-12-24T01:11:53.515Z,19.00
2022-12-24T01:12:03.610Z,19.60
2022-12-24T01:12:13.760Z,17.80
2022-12-24T01:12:23.833Z,18.10
2022-12-24T01:12:33.931Z,17.30
2022-12-24T01:12:43.977Z,17.40
2022-12-24T01:12:54.059Z,15.60
2022-12-24T01:13:04.116Z,16.10
2022-12-24T01:13:14.222Z,17.60
2022-12-24T01:13:24.277Z,17.80
2022-12-24T01:13:34.335Z,20.00
2022-12-24T01:13:44.436Z,18.50
2022-12-24T01:13:54.488Z,18.40
2022-12-24T01:14:04.594Z,16.20
2022-12-24T01:14:14.635Z,17.20
2022-12-24T01:14:24.716Z,17.00
2022-12-24T01:14:34.748Z,18.20
2022-12-24T01:14:44.787Z,17.60
2022-12-24T01:14:54.844Z,17.60
2022-12-24T01:15:04.911Z,17.90
2022-12-24T01:15:14.946Z,18.70
2022-12-24T01:15:25.003Z,19.20
2022-12-24T01:15:35.119Z,17.30
2022-12-24T01:15:45.188Z,16.00
2022-12-24T01:15:55.331Z,17.20
2022-12-24T01:16:05.459Z,18.00
2022-12-24T01:16:15.580Z,19.80
2022-12-24T01:16:25.541Z,18.00
2022-12-24T01:16:35.697Z,18.30
2022-12-24T01:16:45.602Z,17.40
2022-12-24T01:16:55.701Z,17.60
2022-12-24T01:17:05.763Z,18.90
2022-12-24T01:17:15.914Z,19.90
2022-12-24T01:17:25.976Z,20.20
2022-12-24T01:17:36.028Z,16.70
2022-12-24T01:17:46.089Z,15.20
2022-12-24T01:17:56.135Z,14.60
2022-12-24T01:18:06.219Z,16.20
2022-12-24T01:18:16.246Z,16.60
2022-12-24T01:18:26.312Z,16.10
2022-12-24T01:18:36.347Z,16.40
2022-12-24T01:18:46.399Z,16.80
2022-12-24T01:18:56.478Z,17.80
2022-12-24T01:19:06.525Z,17.30
2022-12-24T01:19:16.558Z,16.70
2022-12-24T01:19:26.631Z,15.70
2022-12-24T01:19:36.676Z,17.20
2022-12-24T01:19:46.720Z,17.30
2022-12-24T01:19:56.753Z,16.50
2022-12-24T01:20:06.838Z,15.00
2022-12-24T01:20:16.889Z,15.00
2022-12-24T01:20:26.977Z,16.20
2022-12-24T01:20:37.027Z,16.30
2022-12-24T01:20:47.076Z,16.10
2022-12-24T01:20:57.142Z,15.20
2022-12-24T01:21:07.159Z,15.60
2022-12-24T01:21:17.246Z,15.00
2022-12-24T01:21:27.301Z,16.40
2022-12-24T01:21:37.391Z,16.80
2022-12-24T01:21:47.434Z,17.60
2022-12-24T01:21:57.501Z,16.90
2022-12-24T01:22:07.536Z,16.50
2022-12-24T01:22:17.605Z,16.70
2022-12-24T01:22:27.655Z,17.50
2022-12-24T01:22:37.739Z,17.40
2022-12-24T01:22:47.757Z,18.30
2022-12-24T01:22:57.846Z,18.50
2022-12-24T01:23:07.899Z,17.90
2022-12-24T01:23:17.969Z,17.80
2022-12-24T01:23:28.006Z,16.60
2022-12-24T01:23:38.087Z,17.00
2022-12-24T01:23:48.142Z,15.40
2022-12-24T01:23:58.211Z,16.00
2022-12-24T01:24:08.276Z,17.10
2022-12-24T01:24:18.360Z,17.20
2022-12-24T01:24:28.389Z,17.20
2022-12-24T01:24:38.457Z,17.90
2022-12-24T01:24:48.508Z,18.10
2022-12-24T01:24:58.566Z,17.70
2022-12-24T01:25:08.595Z,16.40
2022-12-24T01:25:18.633Z,16.30
2022-12-24T01:25:28.719Z,16.40
2022-12-24T01:25:38.737Z,15.90
2022-12-24T01:25:48.787Z,16.00
2022-12-24T01:25:58.862Z,15.80
2022-12-24T01:26:08.920Z,16.20
2022-12-24T01:26:18.965Z,16.00
2022-12-24T01:26:29.013Z,16.60
2022-12-24T01:26:39.046Z,17.50
2022-12-24T01:26:49.130Z,18.30
2022-12-24T01:26:59.164Z,17.70
2022-12-24T01:27:09.255Z,17.00
2022-12-24T01:27:19.312Z,15.10
2022-12-24T01:27:29.385Z,14.80
2022-12-24T01:27:39.423Z,15.40
2022-12-24T01:27:49.501Z,17.00
2022-12-24T01:27:59.539Z,16.70
2022-12-24T01:28:09.576Z,16.50
2022-12-24T01:28:19.615Z,16.60
2022-12-24T01:28:29.726Z,17.30
2022-12-24T01:28:39.775Z,17.80
2022-12-24T01:28:49.836Z,15.80
2022-12-24T01:28:59.895Z,15.60
2022-12-24T01:29:09.961Z,12.90
2022-12-24T01:29:19.992Z,13.10
2022-12-24T01:29:30.054Z,13.80
2022-12-24T01:29:40.095Z,14.90
2022-12-24T01:29:50.141Z,16.50
2022-12-24T01:30:00.213Z,16.40
2022-12-24T01:30:10.236Z,16.80
2022-12-24T01:30:20.285Z,16.10
2022-12-24T01:30:30.339Z,16.00
2022-12-24T01:30:40.372Z,15.00
2022-12-24T01:30:50.468Z,14.90
2022-12-24T01:31:00.503Z,15.00
2022-12-24T01:31:10.418Z,15.70
2022-12-24T01:31:20.579Z,15.10
2022-12-24T01:31:30.530Z,14.00
2022-12-24T01:31:40.614Z,14.20
2022-12-24T01:31:50.683Z,15.80
2022-12-24T01:32:00.785Z,17.10
2022-12-24T01:32:10.806Z,18.30
2022-12-24T01:32:20.912Z,17.80
2022-12-24T01:32:30.967Z,16.70
2022-12-24T01:32:41.033Z,15.80
2022-12-24T01:32:51.059Z,15.80
2022-12-24T01:33:01.145Z,16.70
2022-12-24T01:33:11.195Z,16.20
2022-12-24T01:33:21.257Z,15.90
2022-12-24T01:33:31.311Z,16.70
2022-12-24T01:33:41.371Z,17.80
2022-12-24T01:33:51.421Z,17.50
2022-12-24T01:34:01.483Z,16.10
2022-12-24T01:34:11.591Z,15.20
2022-12-24T01:34:21.652Z,15.10
2022-12-24T01:34:31.777Z,18.00
2022-12-24T01:34:41.833Z,18.70
2022-12-24T01:34:51.879Z,19.00
2022-12-24T01:35:01.966Z,16.50
2022-12-24T01:35:11.986Z,17.10
2022-12-24T01:35:22.045Z,16.70
2022-12-24T01:35:32.094Z,17.20
2022-12-24T01:35:42.165Z,15.00
2022-12-24T01:35:52.215Z,16.60
2022-12-24T01:36:02.306Z,16.40
2022-12-24T01:36:12.382Z,17.00
2022-12-24T01:36:22.471Z,15.50
2022-12-24T01:36:32.511Z,14.80
2022-12-24T01:36:42.589Z,15.60
2022-12-24T01:36:52.625Z,15.70
2022-12-24T01:37:02.694Z,16.10
2022-12-24T01:37:12.751Z,15.80
2022-12-24T01:37:22.816Z,15.60
2022-12-24T01:37:32.914Z,16.40
2022-12-24T01:37:42.994Z,16.60
2022-12-24T01:37:53.040Z,17.20
2022-12-24T01:38:03.180Z,16.20
2022-12-24T01:38:13.224Z,16.30
2022-12-24T01:38:23.303Z,15.90
2022-12-24T01:38:33.352Z,14.90
2022-12-24T01:38:43.435Z,14.30
2022-12-24T01:38:53.492Z,14.10
2022-12-24T01:39:03.558Z,15.90
2022-12-24T01:39:13.604Z,16.40
2022-12-24T01:39:23.668Z,15.40
2022-12-24T01:39:33.740Z,15.80
2022-12-24T01:39:43.776Z,15.50
2022-12-24T01:39:53.865Z,16.30
2022-12-24T01:40:03.912Z,14.70
2022-12-24T01:40:13.943Z,14.00
2022-12-24T01:40:24.023Z,14.00
2022-12-24T01:40:34.100Z,13.90
2022-12-24T01:40:45.103Z,14.70
2022-12-24T01:40:54.154Z,14.30
2022-12-24T01:41:04.224Z,15.30
2022-12-24T01:41:14.263Z,15.80
2022-12-24T01:41:24.302Z,14.80
2022-12-24T01:41:34.389Z,14.80
2022-12-24T01:41:44.424Z,15.00
2022-12-24T01:41:54.504Z,17.00
2022-12-24T01:42:04.547Z,15.40
2022-12-24T01:42:14.601Z,14.80
2022-12-24T01:42:24.669Z,14.30
2022-12-24T01:42:34.741Z,15.70
2022-12-24T01:42:44.866Z,16.20
2022-12-24T01:42:54.898Z,16.80
2022-12-24T01:43:04.931Z,16.50
2022-12-24T01:43:15.875Z,16.30
2022-12-24T01:43:25.195Z,16.20
2022-12-24T01:43:35.232Z,16.50
2022-12-24T01:43:45.269Z,17.50
2022-12-24T01:43:55.293Z,17.30
2022-12-24T01:44:05.332Z,17.10
2022-12-24T01:44:15.333Z,17.30
2022-12-24T01:44:28.458Z,17.90
2022-12-24T01:44:37.374Z,17.80
2022-12-24T01:44:46.300Z,17.80
2022-12-24T01:44:56.316Z,17.00
2022-12-24T01:45:06.342Z,17.30
2022-12-24T01:45:16.377Z,15.00
2022-12-24T01:45:26.441Z,15.50
2022-12-24T01:45:36.453Z,15.60
2022-12-24T01:45:46.491Z,15.90
2022-12-24T01:45:56.573Z,17.50
2022-12-24T01:46:06.648Z,17.10
2022-12-24T01:46:16.719Z,18.80
2022-12-24T01:46:26.755Z,17.80
2022-12-24T01:46:36.896Z,17.40
2022-12-24T01:46:47.041Z,16.40
2022-12-24T01:46:57.239Z,15.40
2022-12-24T01:47:07.254Z,15.40
2022-12-24T01:47:17.282Z,16.90
2022-12-24T01:47:27.324Z,17.30
2022-12-24T01:47:37.323Z,16.70
2022-12-24T01:47:47.364Z,17.10
2022-12-24T01:47:57.360Z,17.50
2022-12-24T01:48:07.411Z,17.00
2022-12-24T01:48:17.414Z,15.00
2022-12-24T01:48:27.446Z,14.50
2022-12-24T01:48:37.472Z,16.20
2022-12-24T01:48:47.491Z,15.90
2022-12-24T01:48:57.514Z,17.70
2022-12-24T01:49:07.538Z,18.40
2022-12-24T01:49:17.570Z,19.30
2022-12-24T01:49:27.643Z,17.70
2022-12-24T01:49:37.667Z,16.10
2022-12-24T01:49:47.716Z,14.90
2022-12-24T01:49:57.787Z,15.30
2022-12-24T01:50:07.843Z,15.00
2022-12-24T01:50:17.855Z,14.30
2022-12-24T01:50:27.869Z,14.10
2022-12-24T01:50:37.882Z,14.50
2022-12-24T01:50:47.939Z,16.10
2022-12-24T01:50:57.954Z,16.10
2022-12-24T01:51:07.981Z,16.50
2022-12-24T01:51:17.983Z,17.90
2022-12-24T01:51:28.035Z,17.10
2022-12-24T01:51:38.032Z,16.60
2022-12-24T01:51:48.077Z,15.00
2022-12-24T01:51:58.088Z,16.50
2022-12-24T01:52:08.129Z,15.90
2022-12-24T01:52:18.147Z,14.50
2022-12-24T01:52:28.184Z,13.40
2022-12-24T01:52:38.246Z,13.50
2022-12-24T01:52:48.254Z,14.80
2022-12-24T01:52:58.293Z,14.50
2022-12-24T01:53:08.341Z,15.60
2022-12-24T01:53:18.394Z,15.50
2022-12-24T01:53:28.431Z,15.30
2022-12-24T01:53:38.510Z,13.70
2022-12-24T01:53:48.623Z,12.60
2022-12-24T01:53:58.666Z,13.10
2022-12-24T01:54:08.671Z,13.60
2022-12-24T01:54:18.716Z,15.10
2022-12-24T01:54:28.726Z,15.90
2022-12-24T01:54:38.767Z,15.60
2022-12-24T01:54:48.800Z,14.40
2022-12-24T01:54:58.844Z,13.90
2022-12-24T01:55:08.912Z,13.80
2022-12-24T01:55:18.984Z,13.10
2022-12-24T01:55:28.992Z,12.80
2022-12-24T01:55:39.031Z,13.40
2022-12-24T01:55:49.071Z,15.20
2022-12-24T01:55:59.101Z,15.10
2022-12-24T01:56:09.111Z,15.00
2022-12-24T01:56:19.163Z,14.40
2022-12-24T01:56:29.172Z,14.60
2022-12-24T01:56:39.179Z,15.20
2022-12-24T01:56:49.237Z,15.70
2022-12-24T01:56:59.268Z,16.70
2022-12-24T01:57:09.312Z,16.60
2022-12-24T01:57:19.512Z,15.90
2022-12-24T01:57:29.580Z,15.30
2022-12-24T01:57:39.600Z,16.30
2022-12-24T01:57:49.633Z,17.80
2022-12-24T01:57:59.648Z,20.00
2022-12-24T01:58:09.672Z,22.00
2022-12-24T01:58:19.689Z,24.20
2022-12-24T01:58:29.712Z,23.90
2022-12-24T01:58:39.783Z,22.90
2022-12-24T01:58:49.821Z,21.70
2022-12-24T01:58:59.882Z,21.90
2022-12-24T01:59:09.933Z,21.90
2022-12-24T01:59:20.000Z,37.90
2022-12-24T01:59:30.034Z,37.30
2022-12-24T01:59:40.092Z,37.60
2022-12-24T01:59:50.100Z,22.00
2022-12-24T02:00:00.146Z,22.30
2022-12-24T02:00:10.273Z,20.50
2022-12-24T02:00:20.169Z,19.90
2022-12-24T02:00:30.212Z,21.60
2022-12-24T02:00:40.287Z,23.60
2022-12-24T02:00:50.337Z,21.90
2022-12-24T02:01:00.425Z,19.50
2022-12-24T02:01:10.612Z,18.60
2022-12-24T02:01:20.623Z,19.20
2022-12-24T02:01:30.642Z,17.90
2022-12-24T02:01:40.701Z,16.80
2022-12-24T02:01:50.734Z,16.70
2022-12-24T02:02:00.728Z,17.10
2022-12-24T02:02:10.778Z,18.10
2022-12-24T02:02:20.913Z,16.30
2022-12-24T02:02:30.941Z,16.60
2022-12-24T02:02:40.912Z,16.20
2022-12-24T02:02:50.939Z,16.70
2022-12-24T02:03:00.982Z,16.20
2022-12-24T02:03:11.031Z,16.10
2022-12-24T02:03:21.189Z,16.60
2022-12-24T02:03:31.135Z,16.70
2022-12-24T02:03:41.115Z,16.90
2022-12-24T02:03:51.223Z,16.50
2022-12-24T02:04:01.334Z,15.50
2022-12-24T02:04:11.451Z,15.90
2022-12-24T02:04:21.512Z,16.40
2022-12-24T02:04:31.557Z,18.00
2022-12-24T02:04:41.613Z,17.10
2022-12-24T02:04:51.667Z,18.00
2022-12-24T02:05:01.756Z,17.50
2022-12-24T02:05:11.802Z,17.60
2022-12-24T02:05:21.850Z,15.80
2022-12-24T02:05:31.890Z,15.50
2022-12-24T02:05:42.021Z,15.20
2022-12-24T02:05:52.124Z,16.50
2022-12-24T02:06:02.194Z,17.40
2022-12-24T02:06:12.216Z,18.00
2022-12-24T02:06:22.260Z,17.40
2022-12-24T02:06:32.300Z,16.00
2022-12-24T02:06:42.380Z,14.90
2022-12-24T02:06:52.429Z,16.10
2022-12-24T02:07:02.492Z,16.20
2022-12-24T02:07:12.511Z,18.10
2022-12-24T02:07:22.575Z,16.80
2022-12-24T02:07:32.608Z,17.30
2022-12-24T02:07:42.684Z,15.00
2022-12-24T02:07:52.723Z,14.80
2022-12-24T02:08:02.795Z,14.90
2022-12-24T02:08:12.859Z,15.30
2022-12-24T02:08:22.938Z,17.50
2022-12-24T02:08:33.006Z,18.00
2022-12-24T02:08:43.085Z,18.60
2022-12-24T02:08:53.197Z,17.70
2022-12-24T02:09:03.287Z,16.10
2022-12-24T02:09:13.371Z,15.90
2022-12-24T02:09:23.434Z,14.90
2022-12-24T02:09:33.480Z,15.00
2022-12-24T02:09:43.581Z,14.80
2022-12-24T02:09:53.666Z,15.10
2022-12-24T02:10:03.715Z,16.60
2022-12-24T02:10:13.752Z,16.50
2022-12-24T02:10:23.813Z,17.20
2022-12-24T02:10:33.882Z,15.60
2022-12-24T02:10:43.978Z,16.40
2022-12-24T02:10:54.099Z,16.10
2022-12-24T02:11:04.131Z,17.00
2022-12-24T02:11:14.245Z,15.50
2022-12-24T02:11:24.289Z,15.90
2022-12-24T02:11:34.355Z,16.20
2022-12-24T02:11:44.378Z,16.90
2022-12-24T02:11:54.438Z,16.50
2022-12-24T02:12:04.478Z,16.40
2022-12-24T02:12:14.532Z,16.70
2022-12-24T02:12:24.608Z,17.70
2022-12-24T02:12:34.679Z,17.50
2022-12-24T02:12:44.752Z,18.70
2022-12-24T02:12:54.789Z,17.10
2022-12-24T02:13:04.839Z,17.00
2022-12-24T02:13:14.941Z,16.30
2022-12-24T02:13:24.970Z,17.60
2022-12-24T02:13:35.103Z,16.60
2022-12-24T02:13:45.140Z,18.70
2022-12-24T02:13:55.239Z,18.20
2022-12-24T02:14:05.281Z,18.10
2022-12-24T02:14:15.381Z,16.40
2022-12-24T02:14:25.440Z,18.20
2022-12-24T02:14:35.536Z,17.30
2022-12-24T02:14:45.536Z,16.20
2022-12-24T02:14:55.588Z,14.10
2022-12-24T02:15:05.625Z,14.50
2022-12-24T02:15:15.698Z,16.60
2022-12-24T02:15:25.725Z,17.80
2022-12-24T02:15:35.950Z,18.40
2022-12-24T02:15:45.827Z,17.00
2022-12-24T02:15:55.944Z,16.00
2022-12-24T02:16:05.933Z,16.00
2022-12-24T02:16:15.999Z,15.80
2022-12-24T02:16:26.002Z,16.00
2022-12-24T02:16:36.102Z,16.30
2022-12-24T02:16:46.144Z,16.20
2022-12-24T02:16:56.204Z,16.50
2022-12-24T02:17:06.242Z,15.90
2022-12-24T02:17:16.352Z,16.40
2022-12-24T02:17:26.420Z,15.90
2022-12-24T02:17:36.437Z,15.40
2022-12-24T02:17:46.581Z,16.80
2022-12-24T02:17:56.652Z,17.80
2022-12-24T02:18:06.707Z,18.80
2022-12-24T02:18:16.792Z,16.70
2022-12-24T02:18:26.832Z,15.80
2022-12-24T02:18:36.893Z,16.00
2022-12-24T02:18:46.950Z,17.00
2022-12-24T02:18:56.986Z,17.40
2022-12-24T02:19:07.051Z,16.30
2022-12-24T02:19:17.079Z,17.90
2022-12-24T02:19:27.202Z,18.30
2022-12-24T02:19:37.241Z,19.20
2022-12-24T02:19:47.303Z,17.80
2022-12-24T02:19:57.348Z,17.50
2022-12-24T02:20:07.429Z,17.00
2022-12-24T02:20:17.458Z,16.40
2022-12-24T02:20:27.541Z,16.50
2022-12-24T02:20:37.579Z,16.20
2022-12-24T02:20:47.640Z,16.00
2022-12-24T02:20:57.684Z,15.20
2022-12-24T02:21:07.749Z,15.40
2022-12-24T02:21:17.776Z,15.20
2022-12-24T02:21:27.873Z,15.50
2022-12-24T02:21:37.948Z,15.70
2022-12-24T02:21:47.996Z,16.50
2022-12-24T02:21:58.149Z,17.10
2022-12-24T02:22:08.215Z,15.90
2022-12-24T02:22:18.257Z,16.80
2022-12-24T02:22:28.299Z,18.00
2022-12-24T02:22:38.288Z,17.50
2022-12-24T02:22:48.333Z,17.50
2022-12-24T02:22:58.388Z,16.70
2022-12-24T02:23:08.442Z,17.20
2022-12-24T02:23:18.489Z,16.80
2022-12-24T02:23:28.588Z,17.40
2022-12-24T02:23:38.693Z,16.50
2022-12-24T02:23:48.737Z,16.00
2022-12-24T02:23:58.803Z,15.50
2022-12-24T02:24:08.850Z,15.30
2022-12-24T02:24:18.910Z,15.50
2022-12-24T02:24:28.976Z,16.00
2022-12-24T02:24:39.014Z,19.50
2022-12-24T02:24:49.062Z,20.80
2022-12-24T02:24:59.122Z,19.30
2022-12-24T02:25:09.146Z,16.50
2022-12-24T02:25:19.199Z,15.90
2022-12-24T02:25:29.228Z,15.70
2022-12-24T02:25:39.286Z,15.80
2022-12-24T02:25:49.327Z,15.20
2022-12-24T02:25:59.379Z,15.20
2022-12-24T02:26:09.427Z,16.40
2022-12-24T02:26:19.466Z,18.00
2022-12-24T02:26:29.547Z,18.80
2022-12-24T02:26:39.616Z,17.30
2022-12-24T02:26:49.666Z,16.10
2022-12-24T02:26:59.709Z,15.50
2022-12-24T02:27:09.768Z,15.10
2022-12-24T02:27:19.828Z,14.80
2022-12-24T02:27:29.876Z,15.40
2022-12-24T02:27:39.946Z,17.60
2022-12-24T02:27:50.073Z,18.40
2022-12-24T02:28:00.121Z,18.10
2022-12-24T02:28:10.193Z,16.50
2022-12-24T02:28:20.260Z,16.30
2022-12-24T02:28:30.295Z,16.90
2022-12-24T02:28:40.362Z,16.60
2022-12-24T02:28:50.426Z,16.40
2022-12-24T02:29:00.478Z,15.10
2022-12-24T02:29:10.549Z,15.60
2022-12-24T02:29:20.614Z,15.90
2022-12-24T02:29:30.655Z,17.70
2022-12-24T02:29:40.710Z,18.40
2022-12-24T02:29:50.745Z,16.60
2022-12-24T02:30:00.865Z,15.90
2022-12-24T02:30:10.904Z,14.50
2022-12-24T02:30:20.964Z,15.30
2022-12-24T02:30:31.015Z,15.80
2022-12-24T02:30:41.082Z,16.10
2022-12-24T02:30:51.221Z,15.20
2022-12-24T02:31:01.329Z,15.70
2022-12-24T02:31:11.452Z,17.10
2022-12-24T02:31:21.546Z,17.10
2022-12-24T02:31:31.506Z,17.50
2022-12-24T02:31:41.477Z,16.70
2022-12-24T02:31:51.602Z,16.70
2022-12-24T02:32:01.691Z,15.80
2022-12-24T02:32:11.735Z,16.10
2022-12-24T02:32:21.776Z,18.70
2022-12-24T02:32:31.844Z,19.60
2022-12-24T02:32:41.934Z,20.40
2022-12-24T02:32:52.089Z,18.50
2022-12-24T02:33:02.152Z,17.60
2022-12-24T02:33:12.206Z,16.50
2022-12-24T02:33:22.287Z,15.80
2022-12-24T02:33:32.365Z,15.20
2022-12-24T02:33:42.436Z,14.60
2022-12-24T02:33:52.505Z,14.00
2022-12-24T02:34:02.646Z,14.60
2022-12-24T02:34:12.571Z,15.50
2022-12-24T02:34:22.643Z,15.60
2022-12-24T02:34:32.732Z,16.20
2022-12-24T02:34:42.824Z,14.90
2022-12-24T02:34:52.899Z,16.30
2022-12-24T02:35:02.936Z,16.30
2022-12-24T02:35:12.989Z,16.90
2022-12-24T02:35:23.035Z,17.10
2022-12-24T02:35:33.190Z,18.50
2022-12-24T02:35:43.225Z,18.60
2022-12-24T02:35:53.297Z,17.50
2022-12-24T02:36:03.418Z,16.20
2022-12-24T02:36:13.492Z,15.80
2022-12-24T02:36:23.541Z,16.20
2022-12-24T02:36:33.642Z,15.30
2022-12-24T02:36:43.687Z,16.10
2022-12-24T02:36:53.756Z,16.00
2022-12-24T02:37:03.801Z,16.70
2022-12-24T02:37:13.856Z,15.70
2022-12-24T02:37:23.937Z,14.90
2022-12-24T02:37:34.003Z,14.40
2022-12-24T02:37:44.078Z,15.00
2022-12-24T02:37:54.167Z,14.90
2022-12-24T02:38:04.229Z,15.40
2022-12-24T02:38:14.296Z,15.40
2022-12-24T02:38:24.375Z,17.30
2022-12-24T02:38:34.490Z,18.20
2022-12-24T02:38:44.571Z,17.90
2022-12-24T02:38:54.658Z,16.80
2022-12-24T02:39:04.733Z,15.60
2022-12-24T02:39:14.807Z,16.80
2022-12-24T02:39:24.911Z,17.90
2022-12-24T02:39:34.975Z,17.70
2022-12-24T02:39:45.031Z,16.10
2022-12-24T02:39:55.184Z,17.10
2022-12-24T02:40:08.053Z,17.10
2022-12-24T02:40:16.953Z,17.40
2022-12-24T02:40:26.241Z,15.60
2022-12-24T02:40:36.300Z,16.90
2022-12-24T02:40:46.401Z,18.60
2022-12-24T02:40:56.486Z,18.30
2022-12-24T02:41:06.466Z,17.80
2022-12-24T02:41:16.547Z,15.60
2022-12-24T02:41:26.620Z,15.60
2022-12-24T02:41:36.711Z,14.60
2022-12-24T02:41:46.786Z,15.40
2022-12-24T02:41:56.877Z,15.10
2022-12-24T02:42:06.938Z,16.90
2022-12-24T02:42:17.015Z,17.80
2022-12-24T02:42:27.074Z,19.40
2022-12-24T02:42:37.205Z,19.80
2022-12-24T02:42:47.284Z,19.00
2022-12-24T02:42:57.348Z,18.50
2022-12-24T02:43:07.427Z,17.60
2022-12-24T02:43:17.537Z,17.70
2022-12-24T02:43:30.740Z,17.20
2022-12-24T02:43:37.757Z,16.60
2022-12-24T02:43:47.806Z,16.60
2022-12-24T02:43:57.873Z,16.90
2022-12-24T02:44:07.959Z,17.10
2022-12-24T02:44:18.041Z,16.30
2022-12-24T02:44:28.033Z,15.70
2022-12-24T02:44:38.086Z,15.10
2022-12-24T02:44:48.153Z,15.90
2022-12-24T02:44:58.223Z,17.30
2022-12-24T02:45:08.273Z,19.00
2022-12-24T02:45:18.371Z,18.60
2022-12-24T02:45:28.444Z,18.00
2022-12-24T02:45:38.496Z,16.30
2022-12-24T02:45:51.365Z,16.10
2022-12-24T02:45:59.844Z,15.90
2022-12-24T02:46:09.626Z,17.40
2022-12-24T02:46:19.768Z,17.30
2022-12-24T02:46:29.897Z,17.50
2022-12-24T02:46:40.031Z,16.90
2022-12-24T02:46:50.154Z,17.30
2022-12-24T02:47:00.208Z,17.70
2022-12-24T02:47:10.278Z,18.40
2022-12-24T02:47:20.228Z,18.90
2022-12-24T02:47:33.563Z,18.80
2022-12-24T02:47:40.261Z,18.20
2022-12-24T02:47:50.306Z,17.80
2022-12-24T02:48:00.437Z,17.30
2022-12-24T02:48:10.486Z,16.20
2022-12-24T02:48:20.557Z,16.40
2022-12-24T02:48:30.695Z,17.10
2022-12-24T02:48:40.766Z,17.90
2022-12-24T02:48:50.819Z,16.80